Time;durP1;ratioP1;P1;durP2;ratioP2;P2;SDS_P1;SDS_P2;PMS_P1;PMS_P2;Temp;Humidity;BMP_temperature;BMP_pressure;BME280_temperature;BME280_humidity;BME280_pressure;Samples;Min_cycle;Max_cycle;Signal;HPM_P1;HPM_P2
2021/11/15 00:01:18;;;;;;;30.55;9.40;;;;;;;11.37;73.74;101323.25;5004133;28;20050;-43
2021/11/15 00:03:45;;;;;;;27.80;9.55;;;;;;;11.37;73.85;101318.06;4998576;28;20064;-49
2021/11/15 00:06:12;;;;;;;30.40;9.43;;;;;;;11.36;73.21;101316.34;5002284;28;20100;-46
2021/11/15 00:08:38;;;;;;;29.33;8.88;;;;;;;11.36;74.03;101316.34;4998060;28;20050;-47
2021/11/15 00:11:05;;;;;;;29.02;8.18;;;;;;;11.35;73.66;101314.59;4995476;28;20065;-45
2021/11/15 00:13:32;;;;;;;25.50;9.73;;;;;;;11.35;73.32;101323.22;4998668;28;20050;-45
2021/11/15 00:15:59;;;;;;;27.10;9.13;;;;;;;11.36;74.15;101316.34;5026087;28;20695;-46
2021/11/15 00:18:26;;;;;;;26.98;8.02;;;;;;;11.37;73.39;101312.88;5002202;28;20485;-48
2021/11/15 00:20:53;;;;;;;28.33;9.10;;;;;;;11.39;74.14;101316.38;4998431;28;20064;-46
2021/11/15 00:23:20;;;;;;;33.03;8.98;;;;;;;11.40;73.77;101302.56;5004839;28;20068;-47
2021/11/15 00:25:46;;;;;;;28.05;9.40;;;;;;;11.37;74.34;101298.19;5001812;28;20049;-48
2021/11/15 00:28:13;;;;;;;34.05;8.85;;;;;;;11.31;73.34;101292.91;5000291;28;20076;-47
2021/11/15 00:30:40;;;;;;;34.70;9.13;;;;;;;11.26;73.15;101295.47;4998858;28;20049;-46
2021/11/15 00:33:06;;;;;;;31.27;9.00;;;;;;;11.22;74.02;101297.97;5002767;28;20076;-44
2021/11/15 00:35:33;;;;;;;27.42;8.48;;;;;;;11.14;74.54;101295.25;5003287;28;20050;-46
2021/11/15 00:38:00;;;;;;;27.98;10.32;;;;;;;11.07;73.96;101294.28;5001488;28;20057;-41
2021/11/15 00:40:27;;;;;;;33.65;9.38;;;;;;;11.03;73.88;101298.59;4991449;28;20049;-46
2021/11/15 00:42:53;;;;;;;27.45;7.60;;;;;;;10.98;74.74;101295.03;4985517;28;20671;-49
2021/11/15 00:45:20;;;;;;;31.35;9.43;;;;;;;10.98;73.92;101297.63;4989739;28;20053;-48
2021/11/15 00:47:47;;;;;;;30.25;9.77;;;;;;;10.95;74.98;101297.59;5002103;28;20081;-47
2021/11/15 00:50:17;;;;;;;35.40;9.25;;;;;;;10.97;74.60;101301.06;4987579;28;20059;-44
2021/11/15 00:52:44;;;;;;;30.02;8.13;;;;;;;10.97;74.58;101303.66;5000532;28;20441;-48
2021/11/15 00:55:11;;;;;;;28.95;9.32;;;;;;;10.97;74.40;101302.81;5002004;28;20057;-42
2021/11/15 00:57:38;;;;;;;32.35;8.98;;;;;;;10.96;74.25;101299.31;5010446;28;20141;-44
2021/11/15 01:00:09;;;;;;;35.00;9.93;;;;;;;10.96;74.86;101296.72;5005117;28;20045;-46
2021/11/15 01:02:36;;;;;;;30.40;10.02;;;;;;;10.96;74.66;101299.31;5004113;28;20757;-46
2021/11/15 01:05:05;;;;;;;28.30;8.88;;;;;;;10.95;74.70;101297.59;5005458;28;20053;-49
2021/11/15 01:07:31;;;;;;;29.63;9.25;;;;;;;10.99;74.63;101291.59;5003234;28;20045;-44
2021/11/15 01:09:58;;;;;;;30.00;10.15;;;;;;;11.02;74.90;101291.63;5004106;28;20356;-44
2021/11/15 01:12:25;;;;;;;29.85;9.90;;;;;;;11.04;74.24;101292.53;5005620;28;20274;-44
2021/11/15 01:14:51;;;;;;;30.15;10.63;;;;;;;11.09;74.46;101296.91;5000852;28;20054;-44
2021/11/15 01:17:18;;;;;;;34.53;10.18;;;;;;;11.11;74.72;101295.25;5005470;28;20050;-47
2021/11/15 01:19:45;;;;;;;28.15;9.52;;;;;;;11.11;74.56;101300.41;5002610;28;20093;-48
2021/11/15 01:22:12;;;;;;;28.13;7.70;;;;;;;11.11;74.69;101296.09;5005636;28;20642;-45
2021/11/15 01:24:39;;;;;;;29.38;10.18;;;;;;;11.14;74.06;101295.25;5006423;28;20049;-47
2021/11/15 01:27:06;;;;;;;29.20;9.68;;;;;;;11.14;74.62;101296.13;5000937;28;20112;-46
2021/11/15 01:29:32;;;;;;;31.15;10.35;;;;;;;11.13;74.96;101299.59;5006524;28;20119;-46
2021/11/15 01:32:00;;;;;;;27.85;10.75;;;;;;;11.17;74.34;101295.31;4998832;28;20058;-43
2021/11/15 01:34:29;;;;;;;29.00;9.15;;;;;;;11.22;75.29;101298.88;5001591;28;20100;-46
2021/11/15 01:36:56;;;;;;;28.05;9.45;;;;;;;11.23;73.94;101294.53;5002618;28;20576;-49
2021/11/15 01:39:23;;;;;;;30.98;9.90;;;;;;;11.24;73.83;101297.16;5002289;28;20050;-46
2021/11/15 01:41:52;;;;;;;33.58;12.13;;;;;;;11.26;74.06;101300.66;5001205;28;20054;-41
2021/11/15 01:44:19;;;;;;;28.42;10.45;;;;;;;11.26;74.65;101290.28;5007122;28;20053;-45
2021/11/15 01:46:45;;;;;;;31.33;9.93;;;;;;;11.25;74.04;101293.69;5005242;28;20050;-46
2021/11/15 01:49:12;;;;;;;34.15;8.45;;;;;;;11.25;74.11;101291.09;5005753;28;20646;-45
2021/11/15 01:51:39;;;;;;;30.50;10.27;;;;;;;11.25;73.81;101293.69;5002131;28;20050;-44
2021/11/15 01:54:06;;;;;;;30.10;8.82;;;;;;;11.27;74.68;101292.00;5002522;28;20058;-44
2021/11/15 01:56:32;;;;;;;31.92;9.23;;;;;;;11.28;74.95;101293.75;5004009;28;20053;-44
2021/11/15 01:59:02;;;;;;;29.48;9.80;;;;;;;11.29;74.12;101287.69;4999422;28;20061;-43
2021/11/15 02:01:29;;;;;;;31.00;9.95;;;;;;;11.30;74.66;101288.59;5003983;28;20053;-51
2021/11/15 02:03:57;;;;;;;38.70;10.13;;;;;;;11.30;73.72;101281.69;5002063;28;20054;-45
2021/11/15 02:06:26;;;;;;;24.27;8.82;;;;;;;11.32;74.75;101279.13;5003306;28;20631;-45
2021/11/15 02:08:53;;;;;;;29.00;9.43;;;;;;;11.35;73.65;101273.09;4999684;28;20045;-52
2021/11/15 02:11:19;;;;;;;27.15;9.00;;;;;;;11.35;73.44;101270.50;5019963;28;20050;-48
2021/11/15 02:13:46;;;;;;;29.13;10.05;;;;;;;11.37;74.30;101266.19;5003748;28;20438;-44
2021/11/15 02:16:13;;;;;;;29.70;9.90;;;;;;;11.38;74.25;101267.97;5003256;28;20100;-45
2021/11/15 02:18:41;;;;;;;30.85;9.73;;;;;;;11.39;73.74;101272.28;5003218;28;20054;-42
2021/11/15 02:21:08;;;;;;;30.67;10.35;;;;;;;11.39;74.48;101272.28;5000204;28;20057;-45
2021/11/15 02:23:40;;;;;;;37.00;10.02;;;;;;;11.38;74.08;101268.81;5005982;28;20853;-47
2021/11/15 02:26:08;;;;;;;28.15;10.00;;;;;;;11.38;74.40;101271.41;4987750;28;20461;-50
2021/11/15 02:28:39;;;;;;;29.88;9.68;;;;;;;11.39;74.19;101278.31;5001997;28;20107;-46
2021/11/15 02:31:07;;;;;;;30.95;10.45;;;;;;;11.40;74.00;101276.63;5002304;28;20053;-43
2021/11/15 02:33:35;;;;;;;29.92;9.93;;;;;;;11.41;73.32;101263.66;4995667;28;20137;-47
2021/11/15 02:36:04;;;;;;;30.23;10.25;;;;;;;11.41;73.49;101275.75;5003339;28;20064;-49
2021/11/15 02:38:32;;;;;;;32.88;10.25;;;;;;;11.42;73.51;101274.94;5001645;28;20046;-44
2021/11/15 02:40:59;;;;;;;28.73;8.93;;;;;;;11.41;73.75;101276.63;5002441;28;20108;-45
2021/11/15 02:43:27;;;;;;;34.65;10.02;;;;;;;11.43;73.36;101271.47;5002415;28;20054;-45
2021/11/15 02:45:54;;;;;;;24.95;9.20;;;;;;;11.41;73.48;101281.81;5004945;28;20100;-49
2021/11/15 02:48:23;;;;;;;30.35;10.70;;;;;;;11.41;73.15;101283.53;5000269;28;20096;-46
2021/11/15 02:50:51;;;;;;;33.65;11.32;;;;;;;11.40;74.13;101281.81;5001226;28;20039;-46
2021/11/15 02:53:19;;;;;;;31.33;10.23;;;;;;;11.40;74.01;101281.81;5000730;28;20100;-46
2021/11/15 02:55:46;;;;;;;31.48;9.48;;;;;;;11.39;73.80;101275.72;4996412;28;20097;-45
2021/11/15 02:58:14;;;;;;;34.58;9.90;;;;;;;11.40;74.27;101272.31;4999948;28;20046;-46
2021/11/15 03:00:47;;;;;;;24.08;9.10;;;;;;;11.39;73.93;101273.13;5000132;28;20112;-44
2021/11/15 03:03:15;;;;;;;29.17;9.60;;;;;;;11.41;73.97;101270.56;5001588;28;20050;-45
2021/11/15 03:05:45;;;;;;;27.15;9.82;;;;;;;11.40;73.91;101269.72;5000490;28;20054;-46
2021/11/15 03:08:12;;;;;;;29.55;9.93;;;;;;;11.42;73.31;101269.75;5001247;28;20509;-46
2021/11/15 03:10:41;;;;;;;29.73;9.88;;;;;;;11.40;73.49;101263.66;5001713;28;20045;-48
2021/11/15 03:13:11;;;;;;;26.75;7.63;;;;;;;11.40;74.53;101261.06;5001199;28;20735;-46
2021/11/15 03:15:42;;;;;;;;;;;;;;;11.28;73.59;101256.59;5006034;28;20510;-45
2021/11/15 03:18:14;;;;;;;29.73;9.02;;;;;;;11.39;74.44;101259.31;4999236;28;19925;-45
2021/11/15 03:20:46;;;;;;;28.77;8.43;;;;;;;11.41;73.62;101257.59;5000778;28;20626;-48
2021/11/15 03:23:16;;;;;;;34.00;10.32;;;;;;;11.40;73.79;101258.44;4999665;28;20045;-46
2021/11/15 03:25:44;;;;;;;33.28;10.20;;;;;;;11.42;74.21;101259.38;4999555;28;20070;-46
2021/11/15 03:28:14;;;;;;;29.95;10.63;;;;;;;11.41;73.53;101253.28;5003566;28;20105;-45
2021/11/15 03:30:42;;;;;;;32.78;10.60;;;;;;;11.37;74.18;101245.44;5000749;28;20112;-44
2021/11/15 03:33:10;;;;;;;27.00;9.55;;;;;;;11.37;74.03;101255.81;5003533;28;20046;-49
2021/11/15 03:35:38;;;;;;;31.52;9.80;;;;;;;11.35;73.08;101255.78;5005504;28;20049;-53
2021/11/15 03:38:06;;;;;;;29.73;10.68;;;;;;;11.36;74.11;101254.09;5010485;28;20049;-47
2021/11/15 03:40:33;;;;;;;35.20;10.23;;;;;;;11.35;74.29;101260.13;5003577;28;20097;-52
2021/11/15 03:43:03;;;;;;;25.30;9.30;;;;;;;11.35;73.07;101250.59;5007249;28;20052;-46
2021/11/15 03:45:30;;;;;;;29.67;10.05;;;;;;;11.34;74.03;101259.25;5006187;28;20061;-49
2021/11/15 03:47:58;;;;;;;28.70;9.85;;;;;;;11.30;73.45;101260.94;5005377;28;20054;-46
2021/11/15 03:50:25;;;;;;;29.67;9.93;;;;;;;11.27;73.73;101263.47;5006536;28;20042;-44
2021/11/15 03:52:53;;;;;;;32.40;9.70;;;;;;;11.26;73.61;101266.94;4998017;28;20042;-45
2021/11/15 03:55:21;;;;;;;28.15;10.02;;;;;;;11.24;73.47;101254.78;5004067;28;21497;-44
2021/11/15 03:57:49;;;;;;;32.20;9.52;;;;;;;11.25;73.50;101256.53;5004968;28;20053;-48
2021/11/15 04:00:19;;;;;;;33.25;9.98;;;;;;;11.24;73.48;101255.66;5002109;28;20096;-43
2021/11/15 04:02:51;;;;;;;29.95;10.30;;;;;;;11.25;73.65;101257.38;5004618;28;20632;-48
2021/11/15 04:05:27;;;;;;;34.55;10.25;;;;;;;11.25;74.19;101249.59;5002213;28;20137;-45
2021/11/15 04:07:55;;;;;;;37.53;10.40;;;;;;;11.24;73.43;101254.78;5002032;28;20058;-44
2021/11/15 04:10:28;;;;;;;28.65;10.57;;;;;;;11.24;73.46;101253.06;5003428;28;20080;-44
2021/11/15 04:12:58;;;;;;;33.08;10.02;;;;;;;11.25;73.89;101252.19;5013243;28;20128;-45
2021/11/15 04:15:25;;;;;;;32.78;10.55;;;;;;;11.26;74.13;101255.69;5005584;28;20107;-46
2021/11/15 04:17:52;;;;;;;30.52;11.15;;;;;;;11.26;74.42;101253.97;5003436;28;20107;-44
2021/11/15 04:20:22;;;;;;;26.02;9.52;;;;;;;11.24;74.07;101250.47;5004050;28;20046;-46
2021/11/15 04:22:49;;;;;;;35.05;10.02;;;;;;;11.20;73.19;101253.88;5001726;28;20053;-48
2021/11/15 04:25:16;;;;;;;33.25;9.73;;;;;;;11.18;73.71;101255.59;5001048;28;20104;-50
2021/11/15 04:27:43;;;;;;;29.20;9.90;;;;;;;11.20;74.12;101261.66;5002860;28;20108;-51
2021/11/15 04:30:12;;;;;;;30.05;9.48;;;;;;;11.15;74.25;101266.75;5004985;28;20108;-41
2021/11/15 04:32:42;;;;;;;33.63;10.88;;;;;;;11.16;73.52;101259.88;5002902;28;20058;-44
2021/11/15 04:35:11;;;;;;;27.02;10.15;;;;;;;11.17;74.11;101259.88;5000498;28;20049;-43
2021/11/15 04:37:39;;;;;;;26.65;10.45;;;;;;;11.19;73.63;101259.91;5003257;28;20105;-48
2021/11/15 04:40:07;;;;;;;32.25;10.52;;;;;;;11.21;73.95;101259.94;5002380;28;20080;-47
2021/11/15 04:42:34;;;;;;;31.67;11.40;;;;;;;11.22;74.21;101266.84;5000606;28;20105;-46
2021/11/15 04:45:02;;;;;;;36.70;10.70;;;;;;;11.22;74.30;101267.75;5005391;28;20054;-42
2021/11/15 04:47:29;;;;;;;40.58;11.43;;;;;;;11.24;73.25;101276.41;5000520;28;20050;-43
2021/11/15 04:49:56;;;;;;;34.22;11.10;;;;;;;11.24;73.64;101272.91;5003282;28;20049;-46
2021/11/15 04:52:23;;;;;;;34.72;11.13;;;;;;;11.24;74.02;101271.22;5006052;28;20109;-47
2021/11/15 04:54:50;;;;;;;29.02;10.07;;;;;;;11.25;73.74;101272.94;5000072;28;20054;-45
2021/11/15 04:57:17;;;;;;;31.85;10.50;;;;;;;11.27;74.47;101268.66;5004587;28;20037;-46
2021/11/15 04:59:44;;;;;;;32.33;10.45;;;;;;;11.29;73.40;101263.50;5005556;28;20922;-44
2021/11/15 05:02:11;;;;;;;34.28;11.32;;;;;;;11.30;74.30;101265.25;5002819;28;20131;-43
2021/11/15 05:04:38;;;;;;;32.20;9.60;;;;;;;11.28;74.27;101267.81;5002125;28;20061;-48
2021/11/15 05:07:05;;;;;;;28.75;8.75;;;;;;;11.29;73.63;101272.13;5001507;28;20618;-45
2021/11/15 05:09:31;;;;;;;29.15;10.20;;;;;;;11.30;73.11;101270.44;5002210;28;20387;-47
2021/11/15 05:11:58;;;;;;;32.45;10.00;;;;;;;11.28;73.26;101273.00;5001959;28;20053;-46
2021/11/15 05:14:25;;;;;;;32.05;10.32;;;;;;;11.24;72.91;101263.44;5006128;28;20045;-47
2021/11/15 05:16:51;;;;;;;33.90;10.05;;;;;;;11.24;74.05;101271.22;5004151;28;20049;-48
2021/11/15 05:19:18;;;;;;;30.05;9.43;;;;;;;11.20;73.80;101264.25;5002487;28;20054;-46
2021/11/15 05:21:45;;;;;;;29.60;11.13;;;;;;;11.21;74.25;101260.78;5005296;28;20050;-47
2021/11/15 05:24:11;;;;;;;35.95;11.00;;;;;;;11.16;73.95;101257.28;5002746;28;20081;-43
2021/11/15 05:26:38;;;;;;;23.90;8.60;;;;;;;11.13;74.44;101262.41;5002549;28;20084;-46
2021/11/15 05:29:05;;;;;;;37.90;10.48;;;;;;;11.13;73.99;101257.22;5001582;28;20046;-47
2021/11/15 05:31:34;;;;;;;30.42;9.60;;;;;;;11.14;74.11;101254.66;5005966;28;20072;-46
2021/11/15 05:34:02;;;;;;;27.95;10.77;;;;;;;11.15;73.55;101250.34;4996431;28;20053;-49
2021/11/15 05:36:30;;;;;;;29.65;9.80;;;;;;;11.14;73.65;101258.94;5001204;28;20050;-44
2021/11/15 05:38:58;;;;;;;42.20;12.02;;;;;;;11.14;73.77;101270.22;5003676;28;20057;-47
2021/11/15 05:41:25;;;;;;;37.22;10.63;;;;;;;11.10;74.31;101267.53;5006015;28;20072;-44
2021/11/15 05:43:51;;;;;;;41.67;10.95;;;;;;;11.08;74.19;101267.50;5003844;28;20414;-52
2021/11/15 05:46:18;;;;;;;35.30;11.68;;;;;;;11.08;74.06;101270.09;5004302;28;20061;-47
2021/11/15 05:48:45;;;;;;;32.38;11.10;;;;;;;11.10;74.01;101264.94;5003432;28;20084;-47
2021/11/15 05:51:11;;;;;;;33.92;10.45;;;;;;;11.11;74.60;101269.31;5002151;28;20054;-45
2021/11/15 05:53:39;;;;;;;35.65;10.35;;;;;;;11.11;74.62;101271.91;5005618;28;20107;-45
2021/11/15 05:56:07;;;;;;;32.28;9.93;;;;;;;11.10;73.70;101268.44;5003313;28;20124;-47
2021/11/15 05:58:34;;;;;;;37.85;11.82;;;;;;;11.12;74.06;101265.84;5002926;28;20097;-46
2021/11/15 06:01:03;;;;;;;44.17;11.40;;;;;;;11.12;74.52;101266.75;5000954;28;20505;-45
2021/11/15 06:03:30;;;;;;;38.97;11.43;;;;;;;11.13;73.54;101272.78;5000376;28;20050;-47
2021/11/15 06:05:57;;;;;;;46.03;12.60;;;;;;;11.13;73.62;101275.38;5001243;28;20396;-48
2021/11/15 06:08:24;;;;;;;41.75;11.30;;;;;;;11.15;74.48;101281.47;5001695;28;20053;-43
2021/11/15 06:10:53;;;;;;;39.20;12.02;;;;;;;11.15;73.63;101277.13;5002737;28;20038;-48
2021/11/15 06:13:20;;;;;;;32.47;11.63;;;;;;;11.17;74.34;101274.56;5003248;28;20042;-50
2021/11/15 06:15:47;;;;;;;34.38;10.80;;;;;;;11.14;73.97;101270.22;5002152;28;20046;-46
2021/11/15 06:18:15;;;;;;;38.13;11.68;;;;;;;11.13;74.16;101277.97;5004549;28;20517;-50
2021/11/15 06:20:43;;;;;;;41.17;12.05;;;;;;;11.09;73.79;101278.78;5000973;28;20054;-44
2021/11/15 06:23:10;;;;;;;34.97;12.25;;;;;;;11.08;74.35;101279.63;5000344;28;20084;-47
2021/11/15 06:25:42;;;;;;;35.67;11.10;;;;;;;11.08;73.52;101277.03;4999640;28;20054;-45
2021/11/15 06:28:08;;;;;;;40.78;13.15;;;;;;;11.07;74.32;101277.88;5004340;28;20057;-47
2021/11/15 06:30:35;;;;;;;38.50;12.95;;;;;;;11.08;73.97;101275.28;4996753;28;20049;-46
2021/11/15 06:33:02;;;;;;;38.75;11.88;;;;;;;11.11;73.62;101279.69;5002498;28;20100;-43
2021/11/15 06:35:29;;;;;;;34.85;12.30;;;;;;;11.11;74.43;101277.94;5003020;28;20116;-46
2021/11/15 06:37:57;;;;;;;36.38;11.52;;;;;;;11.12;74.28;101276.22;5004816;28;20100;-42
2021/11/15 06:40:24;;;;;;;34.92;10.80;;;;;;;11.09;74.37;101271.88;4998460;28;20076;-46
2021/11/15 06:42:51;;;;;;;34.10;9.18;;;;;;;11.04;73.59;101276.97;5002576;28;20449;-45
2021/11/15 06:45:18;;;;;;;40.55;10.30;;;;;;;10.94;73.69;101269.91;4998517;28;20054;-46
2021/11/15 06:47:47;;;;;;;38.88;11.35;;;;;;;10.84;74.27;101275.81;5004190;28;20054;-50
2021/11/15 06:50:17;;;;;;;42.10;11.80;;;;;;;10.77;74.82;101269.63;4981971;28;20060;-44
2021/11/15 06:52:45;;;;;;;59.70;12.77;;;;;;;10.76;74.91;101279.16;4995329;28;20057;-56
2021/11/15 06:55:13;;;;;;;59.72;12.23;;;;;;;10.67;74.88;101269.50;5002682;28;20053;-51
2021/11/15 06:57:42;;;;;;;45.95;12.30;;;;;;;10.60;75.09;101267.66;4998343;28;20054;-51
2021/11/15 07:00:12;;;;;;;52.35;12.30;;;;;;;10.56;75.36;101270.16;5001784;28;20046;-49
2021/11/15 07:02:43;;;;;;;35.97;11.35;;;;;;;10.52;75.23;101290.84;5005049;28;20049;-46
2021/11/15 07:05:11;;;;;;;46.25;11.35;;;;;;;10.50;75.71;101287.34;5000619;28;20061;-44
2021/11/15 07:07:38;;;;;;;49.53;11.57;;;;;;;10.46;75.93;101285.53;5006366;28;20061;-49
2021/11/15 07:10:07;;;;;;;48.42;11.85;;;;;;;10.47;75.21;101297.63;5003541;28;20046;-46
2021/11/15 07:12:34;;;;;;;45.60;11.52;;;;;;;10.44;75.59;101292.41;5006664;28;20486;-48
2021/11/15 07:15:03;;;;;;;50.58;11.55;;;;;;;10.46;75.28;101290.72;5006594;28;20069;-45
2021/11/15 07:17:30;;;;;;;48.83;11.50;;;;;;;10.43;75.69;101289.78;5010166;28;20058;-48
2021/11/15 07:19:57;;;;;;;38.35;10.98;;;;;;;10.39;75.06;101294.00;5008814;28;20108;-45
2021/11/15 07:22:29;;;;;;;34.38;9.93;;;;;;;10.38;75.16;101294.88;5003406;28;20051;-46
2021/11/15 07:24:56;;;;;;;44.30;10.90;;;;;;;10.39;75.22;101292.31;5002801;28;20053;-48
2021/11/15 07:27:23;;;;;;;43.13;10.30;;;;;;;10.38;76.05;101297.47;5007321;28;20077;-46
2021/11/15 07:29:50;;;;;;;45.78;11.55;;;;;;;10.39;75.82;101299.19;5006295;28;20104;-46
2021/11/15 07:32:17;;;;;;;81.25;10.90;;;;;;;10.34;75.12;101295.66;5004949;28;20592;-45
2021/11/15 07:34:44;;;;;;;61.55;10.40;;;;;;;10.35;75.77;101302.56;5004769;28;20137;-46
2021/11/15 07:37:11;;;;;;;57.20;10.30;;;;;;;10.40;75.42;101303.53;5005250;28;20108;-44
2021/11/15 07:39:46;;;;;;;43.25;10.93;;;;;;;10.44;75.84;101304.47;5006714;28;20054;-47
2021/11/15 07:42:16;;;;;;;50.13;10.95;;;;;;;10.48;75.50;101303.72;5003175;28;20061;-48
2021/11/15 07:44:44;;;;;;;38.40;10.38;;;;;;;10.47;75.50;101310.59;5001680;28;20116;-43
2021/11/15 07:47:15;;;;;;;53.50;10.55;;;;;;;10.47;75.35;101317.50;5005595;28;20658;-46
2021/11/15 07:49:43;;;;;;;39.40;10.68;;;;;;;10.46;75.73;101314.03;4999438;28;20382;-44
2021/11/15 07:52:11;;;;;;;34.03;10.50;;;;;;;10.45;75.29;101309.72;4992458;28;20101;-47
2021/11/15 07:54:38;;;;;;;70.55;10.63;;;;;;;10.45;75.73;101304.53;5002355;28;20116;-46
2021/11/15 07:57:08;;;;;;;49.80;11.80;;;;;;;10.47;74.96;101315.78;4994715;28;20054;-49
2021/11/15 07:59:36;;;;;;;43.50;11.18;;;;;;;10.51;75.12;101316.72;4997681;28;20149;-46
2021/11/15 08:02:03;;;;;;;39.92;10.35;;;;;;;10.54;75.19;101320.22;4994661;28;20116;-46
2021/11/15 08:04:30;;;;;;;43.03;11.80;;;;;;;10.57;75.38;101319.41;5026721;28;20054;-42
2021/11/15 08:06:57;;;;;;;45.17;11.23;;;;;;;10.58;75.37;101326.34;5026649;28;20097;-45
2021/11/15 08:09:25;;;;;;;39.47;10.38;;;;;;;10.63;75.77;101323.81;5004007;28;20100;-43
2021/11/15 08:11:55;;;;;;;37.67;10.48;;;;;;;10.66;75.56;101326.47;5002829;28;20373;-45
2021/11/15 08:14:22;;;;;;;36.17;10.43;;;;;;;10.70;75.02;101330.84;5004497;28;20120;-46
2021/11/15 08:16:50;;;;;;;37.25;10.90;;;;;;;10.73;75.53;101319.66;5001290;28;20086;-49
2021/11/15 08:19:17;;;;;;;43.42;11.68;;;;;;;10.76;75.74;101320.63;5003993;28;20182;-50
2021/11/15 08:21:44;;;;;;;33.13;9.40;;;;;;;10.80;74.51;101322.41;4998877;28;20438;-43
2021/11/15 08:24:50;;;;;;;36.05;11.15;;;;;;;10.78;75.03;101329.28;5002295;28;20050;-48
2021/11/15 08:27:17;;;;;;;34.78;9.90;;;;;;;10.86;75.26;101333.72;4987867;28;20050;-47
2021/11/15 08:29:43;;;;;;;35.17;11.13;;;;;;;10.89;74.17;101336.38;5002587;28;20510;-47
2021/11/15 08:32:13;;;;;;;36.25;9.73;;;;;;;10.91;74.81;101332.94;4998298;28;20069;-46
2021/11/15 08:34:40;;;;;;;33.42;10.07;;;;;;;10.92;75.11;101332.09;5008243;28;20762;-47
2021/11/15 08:37:07;;;;;;;35.88;10.68;;;;;;;10.94;74.90;101329.53;5005034;28;20049;-44
2021/11/15 08:39:35;;;;;;;32.85;10.27;;;;;;;10.94;74.13;101334.72;5006384;28;20054;-46
2021/11/15 08:42:09;;;;;;;31.85;10.32;;;;;;;10.95;73.88;101340.78;5002611;28;20058;-48
2021/11/15 08:44:41;;;;;;;44.28;9.85;;;;;;;10.93;74.67;101338.16;5009108;28;20173;-47
2021/11/15 08:47:08;;;;;;;36.78;9.98;;;;;;;10.91;75.14;101342.47;5004059;28;20045;-47
2021/11/15 08:49:35;;;;;;;39.03;10.35;;;;;;;10.93;74.23;101338.16;5004000;28;20046;-43
2021/11/15 08:52:05;;;;;;;34.30;8.40;;;;;;;10.99;74.33;101340.88;5002218;28;20437;-47
2021/11/15 08:54:34;;;;;;;35.90;10.80;;;;;;;11.02;74.27;101338.28;5002975;28;20046;-42
2021/11/15 08:57:05;;;;;;;31.92;10.38;;;;;;;11.08;75.04;101352.22;4998397;28;20538;-42
2021/11/15 08:59:43;;;;;;;39.47;11.70;;;;;;;11.13;74.44;101342.78;4995143;28;21585;-45
2021/11/15 09:02:11;;;;;;;32.17;11.30;;;;;;;11.17;74.76;101336.81;4990344;28;20045;-45
2021/11/15 09:04:38;;;;;;;32.03;9.43;;;;;;;11.19;74.65;101338.56;4994450;28;20855;-45
2021/11/15 09:07:05;;;;;;;29.42;9.35;;;;;;;11.23;74.26;101342.09;4993218;28;20065;-47
2021/11/15 09:09:32;;;;;;;39.42;12.32;;;;;;;11.27;74.65;101343.88;4997663;28;20058;-46
2021/11/15 09:12:02;;;;;;;36.42;10.20;;;;;;;11.32;74.65;101344.81;4998368;28;20097;-48
2021/11/15 09:14:29;;;;;;;36.65;10.93;;;;;;;11.38;73.85;101343.19;4997346;28;20056;-48
2021/11/15 09:16:56;;;;;;;38.22;10.57;;;;;;;11.44;74.17;101345.84;5001818;28;20062;-47
2021/11/15 09:19:23;;;;;;;38.42;10.73;;;;;;;11.52;74.43;101349.41;5006103;28;20144;-46
2021/11/15 09:21:51;;;;;;;30.27;8.70;;;;;;;11.57;74.36;101346.91;5001638;28;21200;-46
2021/11/15 09:24:18;;;;;;;35.05;10.13;;;;;;;11.56;73.06;101345.16;5004206;28;20064;-47
2021/11/15 09:26:45;;;;;;;33.72;10.73;;;;;;;11.57;73.62;101346.91;4997943;28;20058;-45
2021/11/15 09:29:12;;;;;;;32.10;11.15;;;;;;;11.60;74.27;101340.88;4998624;28;20081;-48
2021/11/15 09:31:41;;;;;;;30.58;10.23;;;;;;;11.67;73.74;101340.13;4998077;28;20054;-45
2021/11/15 09:34:08;;;;;;;32.67;9.52;;;;;;;11.73;74.27;101332.41;5001388;28;20173;-50
2021/11/15 09:36:36;;;;;;;30.77;10.20;;;;;;;11.81;73.15;101335.97;4997539;28;20057;-44
2021/11/15 09:39:04;;;;;;;31.45;12.05;;;;;;;11.95;74.04;101336.16;4999279;28;20058;-45
2021/11/15 09:41:32;;;;;;;32.47;11.88;;;;;;;12.26;72.81;101333.06;5001377;28;20050;-48
2021/11/15 09:43:59;;;;;;;27.95;10.00;;;;;;;12.46;72.43;101340.19;4999057;28;20490;-48
2021/11/15 09:46:28;;;;;;;28.55;10.85;;;;;;;12.60;71.88;101338.59;5006369;28;20046;-46
2021/11/15 09:49:03;;;;;;;28.75;10.00;;;;;;;12.73;71.81;101347.41;5000518;28;20062;-46
2021/11/15 09:51:32;;;;;;;28.90;9.90;;;;;;;12.72;71.82;101344.78;5003795;28;20528;-45
2021/11/15 09:54:00;;;;;;;27.73;10.20;;;;;;;12.66;71.73;101343.00;5003087;28;20049;-49
2021/11/15 09:56:27;;;;;;;26.33;10.35;;;;;;;12.63;70.49;101336.91;4995012;28;20054;-46
2021/11/15 09:58:54;;;;;;;30.17;9.55;;;;;;;12.63;70.32;101347.31;5003807;28;20417;-49
2021/11/15 10:01:21;;;;;;;29.35;9.70;;;;;;;12.60;71.59;101354.19;5004673;28;20049;-46
2021/11/15 10:03:48;;;;;;;31.05;11.13;;;;;;;12.57;71.37;101351.56;4998407;28;20501;-50
2021/11/15 10:06:15;;;;;;;27.42;8.13;;;;;;;12.55;70.67;101355.00;4997627;28;20468;-47
2021/11/15 10:08:46;;;;;;;33.00;11.05;;;;;;;12.55;70.80;101360.22;4997558;28;20050;-47
2021/11/15 10:11:12;;;;;;;28.55;10.15;;;;;;;12.56;71.05;101360.22;4991918;28;20049;-47
2021/11/15 10:13:40;;;;;;;32.40;12.57;;;;;;;12.70;71.10;101351.72;4995438;28;20080;-52
2021/11/15 10:16:12;;;;;;;32.20;11.98;;;;;;;12.98;70.83;101354.53;4992410;28;20736;-49
2021/11/15 10:18:45;;;;;;;32.38;11.75;;;;;;;13.16;70.94;101355.53;4993780;28;20085;-52
2021/11/15 10:21:20;;;;;;;24.98;9.77;;;;;;;13.18;70.04;101353.81;4994717;28;20053;-48
2021/11/15 10:23:51;;;;;;;22.08;9.07;;;;;;;13.16;70.01;101352.94;4990541;28;20914;-44
2021/11/15 10:26:30;;;;;;;22.65;10.50;;;;;;;13.46;69.76;101354.00;5021881;28;20062;-49
2021/11/15 10:29:01;;;;;;;22.80;9.13;;;;;;;13.82;69.31;101349.88;4997034;28;20112;-49
2021/11/15 10:31:50;;;;;;;22.98;7.90;;;;;;;14.08;69.32;101346.53;5003943;28;20441;-50
2021/11/15 10:34:37;;;;;;;18.20;8.65;;;;;;;14.26;68.42;101344.88;4989968;28;20042;-47
2021/11/15 10:37:12;;;;;;;25.33;9.45;;;;;;;14.42;68.19;101339.69;4995466;28;20050;-47
2021/11/15 10:39:44;;;;;;;20.55;9.25;;;;;;;14.61;67.98;101340.56;4993731;28;20057;-49
2021/11/15 10:42:19;;;;;;;21.60;8.20;;;;;;;14.79;67.51;101339.75;4994877;28;20096;-50
2021/11/15 10:44:54;;;;;;;22.15;9.23;;;;;;;14.99;67.01;101341.47;4999871;28;20058;-52
2021/11/15 10:47:32;;;;;;;20.50;9.52;;;;;;;15.20;66.14;101344.97;4999132;28;20498;-50
2021/11/15 10:50:10;;;;;;;21.25;9.48;;;;;;;15.29;65.33;101340.59;5001070;28;20108;-44
2021/11/15 10:52:41;;;;;;;19.58;7.53;;;;;;;15.33;65.43;101341.44;4998135;28;20415;-48
2021/11/15 10:55:08;;;;;;;20.08;6.95;;;;;;;15.39;65.30;101338.84;4994813;28;20439;-46
2021/11/15 10:57:39;;;;;;;23.35;9.90;;;;;;;15.47;64.74;101340.56;4993762;28;20046;-50
2021/11/15 11:00:28;;;;;;;23.73;9.45;;;;;;;15.39;64.37;101335.34;4999017;28;20506;-49
2021/11/15 11:03:05;;;;;;;20.92;9.77;;;;;;;15.47;64.62;101332.72;5000159;28;20073;-50
2021/11/15 11:05:34;;;;;;;22.98;9.35;;;;;;;15.42;64.43;101332.72;4998904;28;20415;-46
2021/11/15 11:08:06;;;;;;;20.52;9.30;;;;;;;15.35;64.15;101331.88;4998219;28;20054;-47
2021/11/15 11:10:42;;;;;;;18.50;8.75;;;;;;;15.21;64.31;101331.91;4994145;28;20101;-48
2021/11/15 11:13:12;;;;;;;20.33;8.95;;;;;;;15.12;64.35;101327.56;4997467;28;20089;-48
2021/11/15 11:15:42;;;;;;;;;;;;;;;14.82;62.13;101324.09;4996415;28;20042;-48
2021/11/15 11:18:15;;;;;;;21.58;9.18;;;;;;;14.85;65.21;101331.94;4994495;28;20017;-52
2021/11/15 11:21:02;;;;;;;19.77;9.43;;;;;;;14.89;64.94;101325.84;5000896;28;20046;-49